sensor_id;sensor_type;location;lat;lon;timestamp;P1;durP1;ratioP1;P2;durP2;ratioP2
40256;SDS011;25977;45.462;9.210;2022-10-29T00:00:08;24.48;;;10.77;;
40256;SDS011;25977;45.462;9.210;2022-10-29T00:02:34;21.65;;;9.93;;
40256;SDS011;25977;45.462;9.210;2022-10-29T00:05:00;18.77;;;10.27;;
40256;SDS011;25977;45.462;9.210;2022-10-29T00:07:25;19.48;;;10.80;;
40256;SDS011;25977;45.462;9.210;2022-10-29T00:09:51;23.25;;;11.15;;
40256;SDS011;25977;45.462;9.210;2022-10-29T00:12:17;21.10;;;9.93;;
40256;SDS011;25977;45.462;9.210;2022-10-29T00:14:42;20.23;;;11.65;;
40256;SDS011;25977;45.462;9.210;2022-10-29T00:17:08;23.17;;;12.05;;
40256;SDS011;25977;45.462;9.210;2022-10-29T00:19:33;20.70;;;11.27;;
40256;SDS011;25977;45.462;9.210;2022-10-29T00:21:59;29.90;;;10.43;;
40256;SDS011;25977;45.462;9.210;2022-10-29T00:24:26;26.83;;;10.32;;
40256;SDS011;25977;45.462;9.210;2022-10-29T00:26:51;20.63;;;9.20;;
40256;SDS011;25977;45.462;9.210;2022-10-29T00:29:17;18.60;;;8.90;;
40256;SDS011;25977;45.462;9.210;2022-10-29T00:31:43;17.83;;;9.50;;
40256;SDS011;25977;45.462;9.210;2022-10-29T00:34:08;14.82;;;9.02;;
40256;SDS011;25977;45.462;9.210;2022-10-29T00:36:34;20.52;;;7.72;;
40256;SDS011;25977;45.462;9.210;2022-10-29T00:38:59;17.20;;;8.57;;
40256;SDS011;25977;45.462;9.210;2022-10-29T00:41:26;14.98;;;8.60;;
40256;SDS011;25977;45.462;9.210;2022-10-29T00:46:47;14.88;;;8.32;;
40256;SDS011;25977;45.462;9.210;2022-10-29T00:49:20;14.20;;;8.45;;
40256;SDS011;25977;45.462;9.210;2022-10-29T00:51:48;14.90;;;8.43;;
40256;SDS011;25977;45.462;9.210;2022-10-29T00:54:15;20.77;;;8.35;;
40256;SDS011;25977;45.462;9.210;2022-10-29T00:56:45;16.70;;;7.85;;
40256;SDS011;25977;45.462;9.210;2022-10-29T00:59:14;13.90;;;7.55;;
40256;SDS011;25977;45.462;9.210;2022-10-29T01:01:41;16.33;;;8.30;;
40256;SDS011;25977;45.462;9.210;2022-10-29T01:04:08;26.42;;;8.40;;
40256;SDS011;25977;45.462;9.210;2022-10-29T01:06:35;12.80;;;7.05;;
40256;SDS011;25977;45.462;9.210;2022-10-29T01:09:02;14.55;;;7.80;;
40256;SDS011;25977;45.462;9.210;2022-10-29T01:11:39;17.63;;;7.97;;
40256;SDS011;25977;45.462;9.210;2022-10-29T01:17:01;17.60;;;8.13;;
40256;SDS011;25977;45.462;9.210;2022-10-29T01:27:50;17.83;;;8.40;;
40256;SDS011;25977;45.462;9.210;2022-10-29T01:36:11;15.20;;;7.75;;
40256;SDS011;25977;45.462;9.210;2022-10-29T01:38:37;11.73;;;7.67;;
40256;SDS011;25977;45.462;9.210;2022-10-29T01:44:09;17.23;;;7.38;;
40256;SDS011;25977;45.462;9.210;2022-10-29T01:49:55;9.93;;;6.22;;
40256;SDS011;25977;45.462;9.210;2022-10-29T01:52:26;13.57;;;7.47;;
40256;SDS011;25977;45.462;9.210;2022-10-29T01:54:56;11.98;;;6.28;;
40256;SDS011;25977;45.462;9.210;2022-10-29T01:57:33;13.75;;;6.75;;
40256;SDS011;25977;45.462;9.210;2022-10-29T02:00:13;10.32;;;6.65;;
40256;SDS011;25977;45.462;9.210;2022-10-29T02:02:46;11.98;;;7.30;;
40256;SDS011;25977;45.462;9.210;2022-10-29T02:08:01;12.85;;;6.90;;
40256;SDS011;25977;45.462;9.210;2022-10-29T02:10:52;15.43;;;7.10;;
40256;SDS011;25977;45.462;9.210;2022-10-29T02:13:29;9.65;;;6.60;;
40256;SDS011;25977;45.462;9.210;2022-10-29T02:15:59;12.75;;;7.43;;
40256;SDS011;25977;45.462;9.210;2022-10-29T02:18:29;14.88;;;7.60;;
40256;SDS011;25977;45.462;9.210;2022-10-29T02:20:55;11.90;;;6.10;;
40256;SDS011;25977;45.462;9.210;2022-10-29T02:23:21;15.88;;;7.07;;
40256;SDS011;25977;45.462;9.210;2022-10-29T02:25:46;13.65;;;6.57;;
40256;SDS011;25977;45.462;9.210;2022-10-29T02:28:12;14.90;;;8.43;;
40256;SDS011;25977;45.462;9.210;2022-10-29T02:30:38;10.57;;;7.38;;
40256;SDS011;25977;45.462;9.210;2022-10-29T02:33:03;12.48;;;7.22;;
40256;SDS011;25977;45.462;9.210;2022-10-29T02:35:29;13.68;;;6.97;;
40256;SDS011;25977;45.462;9.210;2022-10-29T02:37:55;16.55;;;8.45;;
40256;SDS011;25977;45.462;9.210;2022-10-29T02:40:20;13.82;;;7.25;;
40256;SDS011;25977;45.462;9.210;2022-10-29T02:42:46;12.88;;;7.22;;
40256;SDS011;25977;45.462;9.210;2022-10-29T02:45:12;12.63;;;7.40;;
40256;SDS011;25977;45.462;9.210;2022-10-29T02:47:38;12.57;;;6.95;;
40256;SDS011;25977;45.462;9.210;2022-10-29T02:50:04;18.13;;;8.27;;
40256;SDS011;25977;45.462;9.210;2022-10-29T02:52:30;13.18;;;7.43;;
40256;SDS011;25977;45.462;9.210;2022-10-29T02:54:56;14.50;;;6.90;;
40256;SDS011;25977;45.462;9.210;2022-10-29T02:57:21;15.15;;;7.78;;
40256;SDS011;25977;45.462;9.210;2022-10-29T02:59:47;13.07;;;7.32;;
40256;SDS011;25977;45.462;9.210;2022-10-29T03:02:13;11.75;;;7.25;;
40256;SDS011;25977;45.462;9.210;2022-10-29T03:04:38;14.00;;;8.27;;
40256;SDS011;25977;45.462;9.210;2022-10-29T03:07:05;10.43;;;7.53;;
40256;SDS011;25977;45.462;9.210;2022-10-29T03:09:31;14.05;;;7.63;;
40256;SDS011;25977;45.462;9.210;2022-10-29T03:11:56;16.75;;;8.10;;
40256;SDS011;25977;45.462;9.210;2022-10-29T03:14:22;12.48;;;7.32;;
40256;SDS011;25977;45.462;9.210;2022-10-29T03:16:48;19.42;;;8.57;;
40256;SDS011;25977;45.462;9.210;2022-10-29T03:19:13;16.85;;;7.45;;
40256;SDS011;25977;45.462;9.210;2022-10-29T03:21:39;14.43;;;7.20;;
40256;SDS011;25977;45.462;9.210;2022-10-29T03:24:06;9.27;;;6.63;;
40256;SDS011;25977;45.462;9.210;2022-10-29T03:26:31;11.95;;;8.02;;
40256;SDS011;25977;45.462;9.210;2022-10-29T03:28:57;15.63;;;8.05;;
40256;SDS011;25977;45.462;9.210;2022-10-29T03:31:23;15.35;;;7.53;;
40256;SDS011;25977;45.462;9.210;2022-10-29T03:33:48;13.52;;;7.10;;
40256;SDS011;25977;45.462;9.210;2022-10-29T03:36:14;10.77;;;7.47;;
40256;SDS011;25977;45.462;9.210;2022-10-29T03:38:40;12.15;;;7.72;;
40256;SDS011;25977;45.462;9.210;2022-10-29T03:41:05;14.27;;;7.90;;
40256;SDS011;25977;45.462;9.210;2022-10-29T03:43:37;15.65;;;8.05;;
40256;SDS011;25977;45.462;9.210;2022-10-29T03:46:04;16.67;;;7.80;;
40256;SDS011;25977;45.462;9.210;2022-10-29T03:48:30;13.38;;;6.90;;
40256;SDS011;25977;45.462;9.210;2022-10-29T03:50:57;13.00;;;7.22;;
40256;SDS011;25977;45.462;9.210;2022-10-29T03:53:27;15.65;;;7.30;;
40256;SDS011;25977;45.462;9.210;2022-10-29T03:55:53;12.60;;;7.25;;
40256;SDS011;25977;45.462;9.210;2022-10-29T03:58:20;15.32;;;7.57;;
40256;SDS011;25977;45.462;9.210;2022-10-29T04:01:05;12.02;;;8.05;;
40256;SDS011;25977;45.462;9.210;2022-10-29T04:03:33;12.60;;;7.43;;
40256;SDS011;25977;45.462;9.210;2022-10-29T04:06:01;10.77;;;6.60;;
40256;SDS011;25977;45.462;9.210;2022-10-29T04:08:32;12.07;;;7.82;;
40256;SDS011;25977;45.462;9.210;2022-10-29T04:10:58;19.23;;;7.63;;
40256;SDS011;25977;45.462;9.210;2022-10-29T04:13:23;9.15;;;7.47;;
40256;SDS011;25977;45.462;9.210;2022-10-29T04:15:52;13.32;;;7.68;;
40256;SDS011;25977;45.462;9.210;2022-10-29T04:18:19;15.95;;;7.82;;
40256;SDS011;25977;45.462;9.210;2022-10-29T04:20:44;24.80;;;8.40;;
40256;SDS011;25977;45.462;9.210;2022-10-29T04:23:10;10.15;;;8.32;;
40256;SDS011;25977;45.462;9.210;2022-10-29T04:25:36;13.55;;;8.07;;
40256;SDS011;25977;45.462;9.210;2022-10-29T04:28:02;13.27;;;7.40;;
40256;SDS011;25977;45.462;9.210;2022-10-29T04:30:28;16.13;;;7.43;;
40256;SDS011;25977;45.462;9.210;2022-10-29T04:32:55;14.93;;;7.78;;
40256;SDS011;25977;45.462;9.210;2022-10-29T04:35:24;15.70;;;9.65;;
40256;SDS011;25977;45.462;9.210;2022-10-29T04:37:52;12.75;;;7.93;;
40256;SDS011;25977;45.462;9.210;2022-10-29T04:40:22;23.05;;;8.15;;
40256;SDS011;25977;45.462;9.210;2022-10-29T04:42:48;10.38;;;7.70;;
40256;SDS011;25977;45.462;9.210;2022-10-29T04:45:14;16.08;;;9.40;;
40256;SDS011;25977;45.462;9.210;2022-10-29T04:47:42;12.00;;;8.65;;
40256;SDS011;25977;45.462;9.210;2022-10-29T04:52:43;26.08;;;8.95;;
40256;SDS011;25977;45.462;9.210;2022-10-29T04:55:09;12.13;;;7.90;;
40256;SDS011;25977;45.462;9.210;2022-10-29T04:57:35;14.48;;;8.02;;
40256;SDS011;25977;45.462;9.210;2022-10-29T05:00:00;26.35;;;7.53;;
40256;SDS011;25977;45.462;9.210;2022-10-29T05:02:26;13.02;;;7.07;;
40256;SDS011;25977;45.462;9.210;2022-10-29T05:04:52;21.35;;;8.15;;
40256;SDS011;25977;45.462;9.210;2022-10-29T05:07:17;22.85;;;7.93;;
40256;SDS011;25977;45.462;9.210;2022-10-29T05:09:43;22.80;;;9.13;;
40256;SDS011;25977;45.462;9.210;2022-10-29T05:12:09;14.85;;;8.85;;
40256;SDS011;25977;45.462;9.210;2022-10-29T05:14:34;17.58;;;8.40;;
40256;SDS011;25977;45.462;9.210;2022-10-29T05:17:00;10.65;;;8.02;;
40256;SDS011;25977;45.462;9.210;2022-10-29T05:19:26;15.43;;;7.90;;
40256;SDS011;25977;45.462;9.210;2022-10-29T05:21:51;13.23;;;7.72;;
40256;SDS011;25977;45.462;9.210;2022-10-29T05:24:17;33.22;;;8.43;;
40256;SDS011;25977;45.462;9.210;2022-10-29T05:26:43;9.82;;;8.40;;
40256;SDS011;25977;45.462;9.210;2022-10-29T05:29:08;13.18;;;7.93;;
40256;SDS011;25977;45.462;9.210;2022-10-29T05:31:34;12.48;;;8.60;;
40256;SDS011;25977;45.462;9.210;2022-10-29T05:34:00;13.65;;;8.38;;
40256;SDS011;25977;45.462;9.210;2022-10-29T05:36:26;14.73;;;7.70;;
40256;SDS011;25977;45.462;9.210;2022-10-29T05:38:51;14.77;;;7.72;;
40256;SDS011;25977;45.462;9.210;2022-10-29T05:41:17;13.27;;;7.82;;
40256;SDS011;25977;45.462;9.210;2022-10-29T05:43:43;20.83;;;7.68;;
40256;SDS011;25977;45.462;9.210;2022-10-29T05:46:13;14.30;;;7.93;;
40256;SDS011;25977;45.462;9.210;2022-10-29T05:48:40;13.98;;;7.85;;
40256;SDS011;25977;45.462;9.210;2022-10-29T05:51:06;15.32;;;7.70;;
40256;SDS011;25977;45.462;9.210;2022-10-29T05:53:32;11.77;;;7.53;;
40256;SDS011;25977;45.462;9.210;2022-10-29T05:55:58;15.13;;;7.68;;
40256;SDS011;25977;45.462;9.210;2022-10-29T05:58:23;10.88;;;7.20;;
40256;SDS011;25977;45.462;9.210;2022-10-29T06:00:49;18.42;;;8.20;;
40256;SDS011;25977;45.462;9.210;2022-10-29T06:03:16;12.85;;;7.28;;
40256;SDS011;25977;45.462;9.210;2022-10-29T06:05:45;11.40;;;6.80;;
40256;SDS011;25977;45.462;9.210;2022-10-29T06:08:11;11.98;;;8.52;;
40256;SDS011;25977;45.462;9.210;2022-10-29T06:10:37;11.68;;;7.75;;
40256;SDS011;25977;45.462;9.210;2022-10-29T06:13:10;16.25;;;7.85;;
40256;SDS011;25977;45.462;9.210;2022-10-29T06:15:36;15.15;;;7.78;;
40256;SDS011;25977;45.462;9.210;2022-10-29T06:18:02;11.75;;;7.75;;
40256;SDS011;25977;45.462;9.210;2022-10-29T06:20:27;19.75;;;8.27;;
40256;SDS011;25977;45.462;9.210;2022-10-29T06:22:54;17.77;;;7.65;;
40256;SDS011;25977;45.462;9.210;2022-10-29T06:25:21;12.77;;;6.97;;
40256;SDS011;25977;45.462;9.210;2022-10-29T06:27:55;14.57;;;8.15;;
40256;SDS011;25977;45.462;9.210;2022-10-29T06:30:29;17.48;;;8.35;;
40256;SDS011;25977;45.462;9.210;2022-10-29T06:32:56;14.35;;;8.30;;
40256;SDS011;25977;45.462;9.210;2022-10-29T06:35:22;15.70;;;8.38;;
40256;SDS011;25977;45.462;9.210;2022-10-29T06:37:48;20.30;;;8.77;;
40256;SDS011;25977;45.462;9.210;2022-10-29T06:40:13;20.05;;;9.30;;
40256;SDS011;25977;45.462;9.210;2022-10-29T06:42:39;14.88;;;8.38;;
40256;SDS011;25977;45.462;9.210;2022-10-29T06:45:05;16.23;;;8.75;;
40256;SDS011;25977;45.462;9.210;2022-10-29T06:47:36;36.72;;;10.43;;
40256;SDS011;25977;45.462;9.210;2022-10-29T06:50:03;15.75;;;8.85;;
40256;SDS011;25977;45.462;9.210;2022-10-29T06:52:30;23.00;;;8.45;;
40256;SDS011;25977;45.462;9.210;2022-10-29T06:54:55;14.75;;;7.60;;
40256;SDS011;25977;45.462;9.210;2022-10-29T06:57:21;28.08;;;8.07;;
40256;SDS011;25977;45.462;9.210;2022-10-29T06:59:49;17.08;;;8.05;;
40256;SDS011;25977;45.462;9.210;2022-10-29T07:02:19;29.45;;;10.48;;
40256;SDS011;25977;45.462;9.210;2022-10-29T07:04:45;14.70;;;7.65;;
40256;SDS011;25977;45.462;9.210;2022-10-29T07:07:11;17.38;;;7.93;;
40256;SDS011;25977;45.462;9.210;2022-10-29T07:09:37;11.18;;;6.45;;
40256;SDS011;25977;45.462;9.210;2022-10-29T07:12:04;14.13;;;7.60;;
40256;SDS011;25977;45.462;9.210;2022-10-29T07:14:30;21.98;;;8.50;;
40256;SDS011;25977;45.462;9.210;2022-10-29T07:16:56;13.55;;;7.25;;
40256;SDS011;25977;45.462;9.210;2022-10-29T07:19:22;11.02;;;7.78;;
40256;SDS011;25977;45.462;9.210;2022-10-29T07:21:47;19.13;;;8.65;;
40256;SDS011;25977;45.462;9.210;2022-10-29T07:24:13;12.68;;;7.18;;
40256;SDS011;25977;45.462;9.210;2022-10-29T07:26:41;13.30;;;8.02;;
40256;SDS011;25977;45.462;9.210;2022-10-29T07:29:07;15.45;;;7.72;;
40256;SDS011;25977;45.462;9.210;2022-10-29T07:31:33;13.23;;;7.47;;
40256;SDS011;25977;45.462;9.210;2022-10-29T07:33:59;12.57;;;7.97;;
40256;SDS011;25977;45.462;9.210;2022-10-29T07:36:25;19.23;;;8.30;;
40256;SDS011;25977;45.462;9.210;2022-10-29T07:38:50;15.52;;;8.02;;
40256;SDS011;25977;45.462;9.210;2022-10-29T07:41:16;17.73;;;7.95;;
40256;SDS011;25977;45.462;9.210;2022-10-29T07:43:42;13.10;;;7.35;;
40256;SDS011;25977;45.462;9.210;2022-10-29T07:46:07;16.45;;;7.40;;
40256;SDS011;25977;45.462;9.210;2022-10-29T07:48:33;15.90;;;7.93;;
40256;SDS011;25977;45.462;9.210;2022-10-29T07:50:59;12.27;;;7.35;;
40256;SDS011;25977;45.462;9.210;2022-10-29T07:53:26;12.05;;;7.93;;
40256;SDS011;25977;45.462;9.210;2022-10-29T07:55:52;14.75;;;7.38;;
40256;SDS011;25977;45.462;9.210;2022-10-29T07:58:19;15.95;;;8.95;;
40256;SDS011;25977;45.462;9.210;2022-10-29T08:00:45;9.70;;;7.50;;
40256;SDS011;25977;45.462;9.210;2022-10-29T08:03:11;17.65;;;7.82;;
40256;SDS011;25977;45.462;9.210;2022-10-29T08:05:37;13.95;;;7.60;;
40256;SDS011;25977;45.462;9.210;2022-10-29T08:08:04;19.75;;;9.25;;
40256;SDS011;25977;45.462;9.210;2022-10-29T08:10:31;12.18;;;8.35;;
40256;SDS011;25977;45.462;9.210;2022-10-29T08:12:58;18.95;;;7.65;;
40256;SDS011;25977;45.462;9.210;2022-10-29T08:15:26;15.48;;;8.18;;
40256;SDS011;25977;45.462;9.210;2022-10-29T08:17:54;15.02;;;9.13;;
40256;SDS011;25977;45.462;9.210;2022-10-29T08:20:20;11.02;;;7.30;;
40256;SDS011;25977;45.462;9.210;2022-10-29T08:22:47;16.70;;;9.25;;
40256;SDS011;25977;45.462;9.210;2022-10-29T08:25:13;18.52;;;8.40;;
40256;SDS011;25977;45.462;9.210;2022-10-29T08:27:39;21.35;;;8.75;;
40256;SDS011;25977;45.462;9.210;2022-10-29T08:30:06;20.70;;;8.73;;
40256;SDS011;25977;45.462;9.210;2022-10-29T08:32:33;19.50;;;8.70;;
40256;SDS011;25977;45.462;9.210;2022-10-29T08:34:59;14.23;;;8.90;;
40256;SDS011;25977;45.462;9.210;2022-10-29T08:37:26;21.48;;;9.02;;
40256;SDS011;25977;45.462;9.210;2022-10-29T08:39:52;18.17;;;9.07;;
40256;SDS011;25977;45.462;9.210;2022-10-29T08:50:51;18.52;;;9.07;;
40256;SDS011;25977;45.462;9.210;2022-10-29T08:53:26;14.25;;;8.90;;
40256;SDS011;25977;45.462;9.210;2022-10-29T08:56:07;18.75;;;10.05;;
40256;SDS011;25977;45.462;9.210;2022-10-29T08:58:46;19.20;;;10.80;;
40256;SDS011;25977;45.462;9.210;2022-10-29T09:01:18;17.40;;;10.38;;
40256;SDS011;25977;45.462;9.210;2022-10-29T09:03:45;17.25;;;9.60;;
40256;SDS011;25977;45.462;9.210;2022-10-29T09:06:12;16.63;;;9.75;;
40256;SDS011;25977;45.462;9.210;2022-10-29T09:11:24;14.82;;;9.23;;
40256;SDS011;25977;45.462;9.210;2022-10-29T09:19:54;13.77;;;9.32;;
40256;SDS011;25977;45.462;9.210;2022-10-29T09:22:50;19.27;;;10.77;;
40256;SDS011;25977;45.462;9.210;2022-10-29T09:25:23;17.83;;;9.90;;
40256;SDS011;25977;45.462;9.210;2022-10-29T09:30:52;19.13;;;9.00;;
40256;SDS011;25977;45.462;9.210;2022-10-29T09:33:27;20.13;;;9.35;;
40256;SDS011;25977;45.462;9.210;2022-10-29T09:35:55;22.52;;;9.70;;
40256;SDS011;25977;45.462;9.210;2022-10-29T09:38:26;10.98;;;7.88;;
40256;SDS011;25977;45.462;9.210;2022-10-29T09:40:59;15.23;;;8.77;;
40256;SDS011;25977;45.462;9.210;2022-10-29T09:51:41;12.13;;;7.93;;
40256;SDS011;25977;45.462;9.210;2022-10-29T09:54:10;14.50;;;7.78;;
40256;SDS011;25977;45.462;9.210;2022-10-29T09:56:40;10.18;;;8.30;;
40256;SDS011;25977;45.462;9.210;2022-10-29T10:01:51;15.95;;;8.32;;
40256;SDS011;25977;45.462;9.210;2022-10-29T10:07:00;10.57;;;7.63;;
40256;SDS011;25977;45.462;9.210;2022-10-29T10:12:45;14.63;;;7.78;;
40256;SDS011;25977;45.462;9.210;2022-10-29T10:15:30;16.30;;;8.60;;
40256;SDS011;25977;45.462;9.210;2022-10-29T10:18:05;22.38;;;8.18;;
40256;SDS011;25977;45.462;9.210;2022-10-29T10:20:42;16.95;;;8.10;;
40256;SDS011;25977;45.462;9.210;2022-10-29T10:23:25;12.50;;;7.45;;
40256;SDS011;25977;45.462;9.210;2022-10-29T10:26:04;15.23;;;9.02;;
40256;SDS011;25977;45.462;9.210;2022-10-29T10:31:46;16.13;;;7.78;;
40256;SDS011;25977;45.462;9.210;2022-10-29T10:39:35;15.40;;;7.47;;
40256;SDS011;25977;45.462;9.210;2022-10-29T10:42:40;10.82;;;7.68;;
40256;SDS011;25977;45.462;9.210;2022-10-29T10:45:14;12.90;;;7.47;;
40256;SDS011;25977;45.462;9.210;2022-10-29T10:48:01;13.07;;;7.20;;
40256;SDS011;25977;45.462;9.210;2022-10-29T10:50:32;23.13;;;8.63;;
40256;SDS011;25977;45.462;9.210;2022-10-29T10:53:04;12.38;;;7.68;;
40256;SDS011;25977;45.462;9.210;2022-10-29T10:55:40;15.30;;;7.85;;
40256;SDS011;25977;45.462;9.210;2022-10-29T11:01:04;7.93;;;6.22;;
40256;SDS011;25977;45.462;9.210;2022-10-29T11:03:42;10.57;;;5.88;;
40256;SDS011;25977;45.462;9.210;2022-10-29T11:06:18;9.48;;;5.55;;
40256;SDS011;25977;45.462;9.210;2022-10-29T11:14:17;9.05;;;5.75;;
40256;SDS011;25977;45.462;9.210;2022-10-29T11:17:07;9.85;;;6.97;;
40256;SDS011;25977;45.462;9.210;2022-10-29T11:20:00;8.02;;;6.65;;
40256;SDS011;25977;45.462;9.210;2022-10-29T11:22:37;8.23;;;6.13;;
40256;SDS011;25977;45.462;9.210;2022-10-29T11:25:30;8.90;;;6.15;;
40256;SDS011;25977;45.462;9.210;2022-10-29T11:30:58;9.02;;;5.63;;
40256;SDS011;25977;45.462;9.210;2022-10-29T11:33:47;10.23;;;5.75;;
40256;SDS011;25977;45.462;9.210;2022-10-29T11:36:38;7.35;;;5.68;;
40256;SDS011;25977;45.462;9.210;2022-10-29T11:39:08;10.02;;;6.07;;
40256;SDS011;25977;45.462;9.210;2022-10-29T11:41:43;11.43;;;6.28;;
40256;SDS011;25977;45.462;9.210;2022-10-29T11:44:18;8.25;;;6.18;;
40256;SDS011;25977;45.462;9.210;2022-10-29T11:52:35;17.27;;;6.10;;
40256;SDS011;25977;45.462;9.210;2022-10-29T12:04:07;8.57;;;4.75;;
40256;SDS011;25977;45.462;9.210;2022-10-29T12:09:30;12.52;;;5.97;;
40256;SDS011;25977;45.462;9.210;2022-10-29T12:12:09;7.57;;;4.88;;
40256;SDS011;25977;45.462;9.210;2022-10-29T12:14:46;6.88;;;5.32;;
40256;SDS011;25977;45.462;9.210;2022-10-29T12:28:38;11.88;;;5.18;;
40256;SDS011;25977;45.462;9.210;2022-10-29T12:31:35;4.60;;;3.92;;
40256;SDS011;25977;45.462;9.210;2022-10-29T12:34:00;7.35;;;4.43;;
40256;SDS011;25977;45.462;9.210;2022-10-29T12:36:44;13.25;;;4.53;;
40256;SDS011;25977;45.462;9.210;2022-10-29T12:39:21;5.80;;;4.65;;
40256;SDS011;25977;45.462;9.210;2022-10-29T12:42:06;11.68;;;5.05;;
40256;SDS011;25977;45.462;9.210;2022-10-29T12:44:45;12.25;;;5.07;;
40256;SDS011;25977;45.462;9.210;2022-10-29T12:47:24;7.32;;;4.20;;
40256;SDS011;25977;45.462;9.210;2022-10-29T12:52:41;7.18;;;4.32;;
40256;SDS011;25977;45.462;9.210;2022-10-29T12:55:12;8.13;;;4.75;;
40256;SDS011;25977;45.462;9.210;2022-10-29T12:57:40;8.65;;;4.55;;
40256;SDS011;25977;45.462;9.210;2022-10-29T13:02:51;10.13;;;5.32;;
40256;SDS011;25977;45.462;9.210;2022-10-29T13:05:19;11.80;;;5.15;;
40256;SDS011;25977;45.462;9.210;2022-10-29T13:15:27;8.23;;;5.05;;
40256;SDS011;25977;45.462;9.210;2022-10-29T13:18:24;8.30;;;5.03;;
40256;SDS011;25977;45.462;9.210;2022-10-29T13:20:53;10.90;;;5.63;;
40256;SDS011;25977;45.462;9.210;2022-10-29T13:25:51;10.60;;;4.65;;
40256;SDS011;25977;45.462;9.210;2022-10-29T13:30:44;11.98;;;6.20;;
40256;SDS011;25977;45.462;9.210;2022-10-29T13:38:39;18.98;;;7.05;;
40256;SDS011;25977;45.462;9.210;2022-10-29T13:41:15;9.75;;;4.80;;
40256;SDS011;25977;45.462;9.210;2022-10-29T13:43:51;13.40;;;5.05;;
40256;SDS011;25977;45.462;9.210;2022-10-29T13:46:23;9.07;;;4.85;;
40256;SDS011;25977;45.462;9.210;2022-10-29T13:48:57;9.70;;;5.72;;
40256;SDS011;25977;45.462;9.210;2022-10-29T13:51:31;10.85;;;5.57;;
40256;SDS011;25977;45.462;9.210;2022-10-29T13:54:36;12.75;;;6.25;;
40256;SDS011;25977;45.462;9.210;2022-10-29T13:56:59;11.80;;;5.03;;
40256;SDS011;25977;45.462;9.210;2022-10-29T13:59:49;13.18;;;5.82;;
40256;SDS011;25977;45.462;9.210;2022-10-29T14:10:35;12.90;;;4.78;;
40256;SDS011;25977;45.462;9.210;2022-10-29T14:18:27;6.95;;;4.40;;
40256;SDS011;25977;45.462;9.210;2022-10-29T14:21:00;11.73;;;4.95;;
40256;SDS011;25977;45.462;9.210;2022-10-29T14:23:28;6.03;;;4.15;;
40256;SDS011;25977;45.462;9.210;2022-10-29T14:25:55;7.40;;;4.72;;
40256;SDS011;25977;45.462;9.210;2022-10-29T14:28:30;13.38;;;4.43;;
40256;SDS011;25977;45.462;9.210;2022-10-29T14:31:01;8.13;;;4.50;;
40256;SDS011;25977;45.462;9.210;2022-10-29T14:36:02;8.95;;;3.22;;
40256;SDS011;25977;45.462;9.210;2022-10-29T14:38:35;10.05;;;4.60;;
40256;SDS011;25977;45.462;9.210;2022-10-29T14:41:08;14.25;;;5.30;;
40256;SDS011;25977;45.462;9.210;2022-10-29T14:43:35;13.50;;;4.43;;
40256;SDS011;25977;45.462;9.210;2022-10-29T14:47:03;10.95;;;5.18;;
40256;SDS011;25977;45.462;9.210;2022-10-29T14:49:17;9.07;;;4.75;;
40256;SDS011;25977;45.462;9.210;2022-10-29T14:52:28;6.05;;;4.60;;
40256;SDS011;25977;45.462;9.210;2022-10-29T14:54:45;16.85;;;5.20;;
40256;SDS011;25977;45.462;9.210;2022-10-29T14:57:16;10.57;;;6.43;;
40256;SDS011;25977;45.462;9.210;2022-10-29T14:59:48;7.10;;;5.00;;
40256;SDS011;25977;45.462;9.210;2022-10-29T15:04:51;10.48;;;5.85;;
40256;SDS011;25977;45.462;9.210;2022-10-29T15:09:50;12.65;;;5.47;;
40256;SDS011;25977;45.462;9.210;2022-10-29T15:12:35;8.65;;;4.88;;
40256;SDS011;25977;45.462;9.210;2022-10-29T15:15:06;8.30;;;3.47;;
40256;SDS011;25977;45.462;9.210;2022-10-29T15:17:34;7.70;;;3.90;;
40256;SDS011;25977;45.462;9.210;2022-10-29T15:20:16;6.38;;;4.10;;
40256;SDS011;25977;45.462;9.210;2022-10-29T15:22:50;7.60;;;4.78;;
40256;SDS011;25977;45.462;9.210;2022-10-29T15:25:22;16.58;;;5.18;;
40256;SDS011;25977;45.462;9.210;2022-10-29T15:27:54;9.93;;;4.60;;
40256;SDS011;25977;45.462;9.210;2022-10-29T15:30:20;10.75;;;4.80;;
40256;SDS011;25977;45.462;9.210;2022-10-29T15:32:56;11.25;;;4.53;;
40256;SDS011;25977;45.462;9.210;2022-10-29T15:35:23;10.00;;;4.40;;
40256;SDS011;25977;45.462;9.210;2022-10-29T15:37:49;7.25;;;4.28;;
40256;SDS011;25977;45.462;9.210;2022-10-29T15:40:19;9.77;;;5.15;;
40256;SDS011;25977;45.462;9.210;2022-10-29T15:42:46;12.63;;;4.00;;
40256;SDS011;25977;45.462;9.210;2022-10-29T15:50:39;12.15;;;5.13;;
40256;SDS011;25977;45.462;9.210;2022-10-29T15:53:14;17.70;;;6.18;;
40256;SDS011;25977;45.462;9.210;2022-10-29T15:55:40;8.20;;;4.68;;
40256;SDS011;25977;45.462;9.210;2022-10-29T15:58:10;14.25;;;4.38;;
40256;SDS011;25977;45.462;9.210;2022-10-29T16:00:41;6.72;;;5.10;;
40256;SDS011;25977;45.462;9.210;2022-10-29T16:03:14;13.68;;;5.38;;
40256;SDS011;25977;45.462;9.210;2022-10-29T16:05:41;13.23;;;5.35;;
40256;SDS011;25977;45.462;9.210;2022-10-29T16:08:31;11.93;;;5.13;;
40256;SDS011;25977;45.462;9.210;2022-10-29T16:11:03;11.90;;;6.10;;
40256;SDS011;25977;45.462;9.210;2022-10-29T16:13:34;13.70;;;5.18;;
40256;SDS011;25977;45.462;9.210;2022-10-29T16:16:00;8.80;;;5.10;;
40256;SDS011;25977;45.462;9.210;2022-10-29T16:18:26;16.20;;;6.75;;
40256;SDS011;25977;45.462;9.210;2022-10-29T16:20:55;13.05;;;7.20;;
40256;SDS011;25977;45.462;9.210;2022-10-29T16:23:22;12.63;;;6.45;;
40256;SDS011;25977;45.462;9.210;2022-10-29T16:25:48;10.95;;;6.25;;
40256;SDS011;25977;45.462;9.210;2022-10-29T16:28:14;15.00;;;5.40;;
40256;SDS011;25977;45.462;9.210;2022-10-29T16:30:40;10.95;;;5.70;;
40256;SDS011;25977;45.462;9.210;2022-10-29T16:33:09;10.68;;;5.72;;
40256;SDS011;25977;45.462;9.210;2022-10-29T16:35:36;10.73;;;5.25;;
40256;SDS011;25977;45.462;9.210;2022-10-29T16:38:01;13.38;;;6.05;;
40256;SDS011;25977;45.462;9.210;2022-10-29T16:40:27;15.85;;;6.55;;
40256;SDS011;25977;45.462;9.210;2022-10-29T16:42:54;16.02;;;7.10;;
40256;SDS011;25977;45.462;9.210;2022-10-29T16:45:21;11.38;;;5.70;;
40256;SDS011;25977;45.462;9.210;2022-10-29T16:47:49;13.48;;;6.55;;
40256;SDS011;25977;45.462;9.210;2022-10-29T16:50:23;11.25;;;7.30;;
40256;SDS011;25977;45.462;9.210;2022-10-29T16:53:03;11.07;;;6.40;;
40256;SDS011;25977;45.462;9.210;2022-10-29T16:55:33;9.65;;;6.55;;
40256;SDS011;25977;45.462;9.210;2022-10-29T16:58:00;9.95;;;7.03;;
40256;SDS011;25977;45.462;9.210;2022-10-29T17:00:25;9.85;;;7.15;;
40256;SDS011;25977;45.462;9.210;2022-10-29T17:02:51;21.65;;;8.68;;
40256;SDS011;25977;45.462;9.210;2022-10-29T17:05:17;16.55;;;8.15;;
40256;SDS011;25977;45.462;9.210;2022-10-29T17:07:43;16.65;;;8.00;;
40256;SDS011;25977;45.462;9.210;2022-10-29T17:10:08;14.73;;;7.97;;
40256;SDS011;25977;45.462;9.210;2022-10-29T17:12:34;21.40;;;8.30;;
40256;SDS011;25977;45.462;9.210;2022-10-29T17:15:00;21.42;;;8.68;;
40256;SDS011;25977;45.462;9.210;2022-10-29T17:17:28;26.30;;;9.43;;
40256;SDS011;25977;45.462;9.210;2022-10-29T17:19:55;14.50;;;8.07;;
40256;SDS011;25977;45.462;9.210;2022-10-29T17:22:20;13.57;;;7.30;;
40256;SDS011;25977;45.462;9.210;2022-10-29T17:24:46;17.20;;;8.05;;
40256;SDS011;25977;45.462;9.210;2022-10-29T17:27:12;16.52;;;7.32;;
40256;SDS011;25977;45.462;9.210;2022-10-29T17:29:37;13.63;;;7.95;;
40256;SDS011;25977;45.462;9.210;2022-10-29T17:32:04;18.13;;;7.45;;
40256;SDS011;25977;45.462;9.210;2022-10-29T17:34:31;16.10;;;8.55;;
40256;SDS011;25977;45.462;9.210;2022-10-29T17:36:58;19.98;;;8.70;;